sensor_id;sensor_type;location;lat;lon;timestamp;temperature;humidity
54680;DHT22;40578;53.178;5.846;2023-06-22T00:00:50;16.50;99.90
54680;DHT22;40578;53.178;5.846;2023-06-22T00:03:18;16.40;99.90
54680;DHT22;40578;53.178;5.846;2023-06-22T00:05:44;16.40;99.90
54680;DHT22;40578;53.178;5.846;2023-06-22T00:08:10;16.40;99.90
54680;DHT22;40578;53.178;5.846;2023-06-22T00:10:36;16.30;99.90
54680;DHT22;40578;53.178;5.846;2023-06-22T00:13:01;16.40;99.90
54680;DHT22;40578;53.178;5.846;2023-06-22T00:15:28;16.30;99.90
54680;DHT22;40578;53.178;5.846;2023-06-22T00:17:54;16.30;99.90
54680;DHT22;40578;53.178;5.846;2023-06-22T00:20:19;16.20;99.90
54680;DHT22;40578;53.178;5.846;2023-06-22T00:22:45;16.20;99.90
54680;DHT22;40578;53.178;5.846;2023-06-22T00:25:11;16.20;99.90
54680;DHT22;40578;53.178;5.846;2023-06-22T00:27:37;16.10;99.90
54680;DHT22;40578;53.178;5.846;2023-06-22T00:30:03;16.30;99.90
54680;DHT22;40578;53.178;5.846;2023-06-22T00:32:29;16.00;99.90
54680;DHT22;40578;53.178;5.846;2023-06-22T00:34:55;16.10;99.90
54680;DHT22;40578;53.178;5.846;2023-06-22T00:37:20;16.00;99.90
54680;DHT22;40578;53.178;5.846;2023-06-22T00:39:51;16.00;99.90
54680;DHT22;40578;53.178;5.846;2023-06-22T00:42:17;16.00;99.90
54680;DHT22;40578;53.178;5.846;2023-06-22T00:44:43;16.00;99.90
54680;DHT22;40578;53.178;5.846;2023-06-22T00:47:11;15.90;99.90
54680;DHT22;40578;53.178;5.846;2023-06-22T00:49:39;16.10;99.90
54680;DHT22;40578;53.178;5.846;2023-06-22T00:52:06;16.00;99.90
54680;DHT22;40578;53.178;5.846;2023-06-22T00:54:37;16.00;99.90
54680;DHT22;40578;53.178;5.846;2023-06-22T00:57:04;15.90;99.90
54680;DHT22;40578;53.178;5.846;2023-06-22T00:59:30;16.10;99.90
54680;DHT22;40578;53.178;5.846;2023-06-22T01:01:58;16.10;99.90
54680;DHT22;40578;53.178;5.846;2023-06-22T01:04:25;16.10;99.90
54680;DHT22;40578;53.178;5.846;2023-06-22T01:07:29;15.90;99.90
54680;DHT22;40578;53.178;5.846;2023-06-22T01:12:56;16.00;99.90
54680;DHT22;40578;53.178;5.846;2023-06-22T01:15:37;16.00;99.90
54680;DHT22;40578;53.178;5.846;2023-06-22T01:18:04;15.90;99.90
54680;DHT22;40578;53.178;5.846;2023-06-22T01:20:32;15.90;99.90
54680;DHT22;40578;53.178;5.846;2023-06-22T01:25:49;15.90;99.90
54680;DHT22;40578;53.178;5.846;2023-06-22T01:28:43;16.00;99.90
54680;DHT22;40578;53.178;5.846;2023-06-22T01:31:24;16.10;99.90
54680;DHT22;40578;53.178;5.846;2023-06-22T01:33:53;16.00;99.90
54680;DHT22;40578;53.178;5.846;2023-06-22T01:36:22;16.20;99.90
54680;DHT22;40578;53.178;5.846;2023-06-22T01:38:49;16.20;99.90
54680;DHT22;40578;53.178;5.846;2023-06-22T01:41:16;16.30;99.90
54680;DHT22;40578;53.178;5.846;2023-06-22T01:43:42;16.50;99.90
54680;DHT22;40578;53.178;5.846;2023-06-22T01:46:10;16.60;99.90
54680;DHT22;40578;53.178;5.846;2023-06-22T01:48:37;16.60;99.90
54680;DHT22;40578;53.178;5.846;2023-06-22T01:51:03;16.50;99.90
54680;DHT22;40578;53.178;5.846;2023-06-22T01:53:29;16.40;99.90
54680;DHT22;40578;53.178;5.846;2023-06-22T01:55:56;16.60;99.90
54680;DHT22;40578;53.178;5.846;2023-06-22T01:58:25;16.60;99.90
54680;DHT22;40578;53.178;5.846;2023-06-22T02:00:56;16.50;99.90
54680;DHT22;40578;53.178;5.846;2023-06-22T02:03:27;16.40;99.90
54680;DHT22;40578;53.178;5.846;2023-06-22T02:06:01;16.40;99.90
54680;DHT22;40578;53.178;5.846;2023-06-22T02:08:39;16.40;99.90
54680;DHT22;40578;53.178;5.846;2023-06-22T02:11:05;16.40;99.90
54680;DHT22;40578;53.178;5.846;2023-06-22T02:13:32;16.20;99.90
54680;DHT22;40578;53.178;5.846;2023-06-22T02:15:58;16.10;99.90
54680;DHT22;40578;53.178;5.846;2023-06-22T02:18:24;16.20;99.90
54680;DHT22;40578;53.178;5.846;2023-06-22T02:20:50;16.10;99.90
54680;DHT22;40578;53.178;5.846;2023-06-22T02:23:16;16.00;99.90
54680;DHT22;40578;53.178;5.846;2023-06-22T02:25:41;15.90;99.90
54680;DHT22;40578;53.178;5.846;2023-06-22T02:28:09;16.00;99.90
54680;DHT22;40578;53.178;5.846;2023-06-22T02:30:35;15.80;99.90
54680;DHT22;40578;53.178;5.846;2023-06-22T02:33:01;15.90;99.90
54680;DHT22;40578;53.178;5.846;2023-06-22T02:35:28;15.90;99.90
54680;DHT22;40578;53.178;5.846;2023-06-22T02:37:58;15.90;99.90
54680;DHT22;40578;53.178;5.846;2023-06-22T02:40:24;15.90;99.90
54680;DHT22;40578;53.178;5.846;2023-06-22T02:42:50;15.90;99.90
54680;DHT22;40578;53.178;5.846;2023-06-22T02:45:16;15.80;99.90
54680;DHT22;40578;53.178;5.846;2023-06-22T02:47:41;15.80;99.90
54680;DHT22;40578;53.178;5.846;2023-06-22T02:50:07;16.20;99.90
54680;DHT22;40578;53.178;5.846;2023-06-22T02:52:33;15.70;99.90
54680;DHT22;40578;53.178;5.846;2023-06-22T02:54:59;15.90;99.90
54680;DHT22;40578;53.178;5.846;2023-06-22T02:57:25;15.70;99.90
54680;DHT22;40578;53.178;5.846;2023-06-22T02:59:51;15.80;99.90
54680;DHT22;40578;53.178;5.846;2023-06-22T03:02:16;15.70;99.90
54680;DHT22;40578;53.178;5.846;2023-06-22T03:04:43;15.70;99.90
54680;DHT22;40578;53.178;5.846;2023-06-22T03:07:08;15.90;99.90
54680;DHT22;40578;53.178;5.846;2023-06-22T03:09:34;15.80;99.90
54680;DHT22;40578;53.178;5.846;2023-06-22T03:12:00;15.90;99.90
54680;DHT22;40578;53.178;5.846;2023-06-22T03:14:30;16.00;99.90
54680;DHT22;40578;53.178;5.846;2023-06-22T03:16:55;15.80;99.90
54680;DHT22;40578;53.178;5.846;2023-06-22T03:19:27;15.90;99.90
54680;DHT22;40578;53.178;5.846;2023-06-22T03:21:55;15.90;99.90
54680;DHT22;40578;53.178;5.846;2023-06-22T03:24:20;16.00;99.90
54680;DHT22;40578;53.178;5.846;2023-06-22T03:26:46;15.80;99.90
54680;DHT22;40578;53.178;5.846;2023-06-22T03:29:12;15.70;99.90
54680;DHT22;40578;53.178;5.846;2023-06-22T03:31:38;15.70;99.90
54680;DHT22;40578;53.178;5.846;2023-06-22T03:34:03;15.90;99.90
54680;DHT22;40578;53.178;5.846;2023-06-22T03:36:29;15.90;99.90
54680;DHT22;40578;53.178;5.846;2023-06-22T03:38:55;15.70;99.90
54680;DHT22;40578;53.178;5.846;2023-06-22T03:41:20;15.70;99.90
54680;DHT22;40578;53.178;5.846;2023-06-22T03:43:46;15.70;99.90
54680;DHT22;40578;53.178;5.846;2023-06-22T03:46:11;15.70;99.90
54680;DHT22;40578;53.178;5.846;2023-06-22T03:48:38;15.60;99.90
54680;DHT22;40578;53.178;5.846;2023-06-22T03:51:03;15.70;99.90
54680;DHT22;40578;53.178;5.846;2023-06-22T03:53:29;15.70;99.90
54680;DHT22;40578;53.178;5.846;2023-06-22T03:55:55;15.70;99.90
54680;DHT22;40578;53.178;5.846;2023-06-22T03:58:21;15.70;99.90
54680;DHT22;40578;53.178;5.846;2023-06-22T04:00:48;15.80;99.90
54680;DHT22;40578;53.178;5.846;2023-06-22T04:03:14;15.60;99.90
54680;DHT22;40578;53.178;5.846;2023-06-22T04:05:41;16.00;99.90
54680;DHT22;40578;53.178;5.846;2023-06-22T04:08:07;15.70;99.90
54680;DHT22;40578;53.178;5.846;2023-06-22T04:10:32;15.90;99.90
54680;DHT22;40578;53.178;5.846;2023-06-22T04:12:58;15.80;99.90
54680;DHT22;40578;53.178;5.846;2023-06-22T04:15:25;15.90;99.90
54680;DHT22;40578;53.178;5.846;2023-06-22T04:17:50;15.90;99.90
54680;DHT22;40578;53.178;5.846;2023-06-22T04:20:16;15.90;99.90
54680;DHT22;40578;53.178;5.846;2023-06-22T04:22:41;15.90;99.90
54680;DHT22;40578;53.178;5.846;2023-06-22T04:25:07;16.10;99.90
54680;DHT22;40578;53.178;5.846;2023-06-22T04:27:34;16.40;99.90
54680;DHT22;40578;53.178;5.846;2023-06-22T04:30:06;16.40;99.90
54680;DHT22;40578;53.178;5.846;2023-06-22T04:32:33;16.40;99.90
54680;DHT22;40578;53.178;5.846;2023-06-22T04:35:02;16.30;99.90
54680;DHT22;40578;53.178;5.846;2023-06-22T04:37:30;16.80;99.90
54680;DHT22;40578;53.178;5.846;2023-06-22T04:39:55;16.60;99.90
54680;DHT22;40578;53.178;5.846;2023-06-22T04:42:21;16.60;99.90
54680;DHT22;40578;53.178;5.846;2023-06-22T04:44:47;16.60;99.90
54680;DHT22;40578;53.178;5.846;2023-06-22T04:47:12;16.70;99.90
54680;DHT22;40578;53.178;5.846;2023-06-22T04:49:38;16.80;99.90
54680;DHT22;40578;53.178;5.846;2023-06-22T04:52:07;17.00;99.90
54680;DHT22;40578;53.178;5.846;2023-06-22T04:54:34;17.00;99.90
54680;DHT22;40578;53.178;5.846;2023-06-22T04:57:04;17.10;99.90
54680;DHT22;40578;53.178;5.846;2023-06-22T04:59:31;17.40;99.90
54680;DHT22;40578;53.178;5.846;2023-06-22T05:01:57;17.80;99.90
54680;DHT22;40578;53.178;5.846;2023-06-22T05:04:24;18.00;99.90
54680;DHT22;40578;53.178;5.846;2023-06-22T05:06:51;18.00;99.90
54680;DHT22;40578;53.178;5.846;2023-06-22T05:09:17;18.40;99.90
54680;DHT22;40578;53.178;5.846;2023-06-22T05:11:43;18.80;99.90
54680;DHT22;40578;53.178;5.846;2023-06-22T05:14:09;19.40;99.90
54680;DHT22;40578;53.178;5.846;2023-06-22T05:16:36;19.90;99.90
54680;DHT22;40578;53.178;5.846;2023-06-22T05:19:01;20.40;99.90
54680;DHT22;40578;53.178;5.846;2023-06-22T05:21:29;20.60;99.90
54680;DHT22;40578;53.178;5.846;2023-06-22T05:23:56;20.60;99.90
54680;DHT22;40578;53.178;5.846;2023-06-22T05:26:26;20.90;99.90
54680;DHT22;40578;53.178;5.846;2023-06-22T05:28:52;21.20;99.90
54680;DHT22;40578;53.178;5.846;2023-06-22T05:31:18;21.40;99.90
54680;DHT22;40578;53.178;5.846;2023-06-22T05:33:46;21.40;99.90
54680;DHT22;40578;53.178;5.846;2023-06-22T05:36:13;21.50;99.90
54680;DHT22;40578;53.178;5.846;2023-06-22T05:38:39;21.60;99.90
54680;DHT22;40578;53.178;5.846;2023-06-22T05:41:05;21.60;99.90
54680;DHT22;40578;53.178;5.846;2023-06-22T05:43:31;21.50;99.90
54680;DHT22;40578;53.178;5.846;2023-06-22T05:45:58;20.90;99.90
54680;DHT22;40578;53.178;5.846;2023-06-22T05:48:23;20.50;99.90
54680;DHT22;40578;53.178;5.846;2023-06-22T05:50:49;20.10;99.90
54680;DHT22;40578;53.178;5.846;2023-06-22T05:53:15;19.90;99.90
54680;DHT22;40578;53.178;5.846;2023-06-22T05:55:40;19.50;99.90
54680;DHT22;40578;53.178;5.846;2023-06-22T05:58:06;19.50;99.90
54680;DHT22;40578;53.178;5.846;2023-06-22T06:00:32;19.70;99.90
54680;DHT22;40578;53.178;5.846;2023-06-22T06:02:58;19.70;99.90
54680;DHT22;40578;53.178;5.846;2023-06-22T06:05:29;19.50;99.90
54680;DHT22;40578;53.178;5.846;2023-06-22T06:07:54;19.50;99.90
54680;DHT22;40578;53.178;5.846;2023-06-22T06:10:20;19.60;99.90
54680;DHT22;40578;53.178;5.846;2023-06-22T06:12:46;19.20;99.90
54680;DHT22;40578;53.178;5.846;2023-06-22T06:15:11;19.10;99.90
54680;DHT22;40578;53.178;5.846;2023-06-22T06:17:48;19.00;99.90
54680;DHT22;40578;53.178;5.846;2023-06-22T06:20:15;19.20;99.90
54680;DHT22;40578;53.178;5.846;2023-06-22T06:22:40;19.40;99.90
54680;DHT22;40578;53.178;5.846;2023-06-22T06:25:08;19.40;99.90
54680;DHT22;40578;53.178;5.846;2023-06-22T06:27:34;19.40;99.90
54680;DHT22;40578;53.178;5.846;2023-06-22T06:29:59;19.30;99.90
54680;DHT22;40578;53.178;5.846;2023-06-22T06:32:25;19.30;99.90
54680;DHT22;40578;53.178;5.846;2023-06-22T06:34:51;19.50;99.90
54680;DHT22;40578;53.178;5.846;2023-06-22T06:37:17;19.40;99.90
54680;DHT22;40578;53.178;5.846;2023-06-22T06:39:44;19.70;99.90
54680;DHT22;40578;53.178;5.846;2023-06-22T06:42:10;19.60;99.90
54680;DHT22;40578;53.178;5.846;2023-06-22T06:44:36;19.70;99.90
54680;DHT22;40578;53.178;5.846;2023-06-22T06:47:04;19.90;99.90
54680;DHT22;40578;53.178;5.846;2023-06-22T06:49:30;19.70;99.90
54680;DHT22;40578;53.178;5.846;2023-06-22T06:51:55;19.80;99.90
54680;DHT22;40578;53.178;5.846;2023-06-22T06:54:21;19.60;99.90
54680;DHT22;40578;53.178;5.846;2023-06-22T06:56:48;19.60;99.90
54680;DHT22;40578;53.178;5.846;2023-06-22T06:59:15;19.60;99.90
54680;DHT22;40578;53.178;5.846;2023-06-22T07:01:42;19.70;99.90
54680;DHT22;40578;53.178;5.846;2023-06-22T07:04:10;19.70;99.90
54680;DHT22;40578;53.178;5.846;2023-06-22T07:06:35;19.70;99.90
54680;DHT22;40578;53.178;5.846;2023-06-22T07:09:01;19.80;99.90
54680;DHT22;40578;53.178;5.846;2023-06-22T07:11:27;19.80;99.90
54680;DHT22;40578;53.178;5.846;2023-06-22T07:13:52;19.70;99.90
54680;DHT22;40578;53.178;5.846;2023-06-22T07:16:18;19.90;99.90
54680;DHT22;40578;53.178;5.846;2023-06-22T07:18:44;19.90;99.90
54680;DHT22;40578;53.178;5.846;2023-06-22T07:21:09;20.00;99.90
54680;DHT22;40578;53.178;5.846;2023-06-22T07:23:35;20.00;99.90
54680;DHT22;40578;53.178;5.846;2023-06-22T07:26:00;20.20;99.90
54680;DHT22;40578;53.178;5.846;2023-06-22T07:28:31;20.20;99.90
54680;DHT22;40578;53.178;5.846;2023-06-22T07:31:02;20.30;99.90
54680;DHT22;40578;53.178;5.846;2023-06-22T07:33:29;20.40;99.90
54680;DHT22;40578;53.178;5.846;2023-06-22T07:35:55;20.50;99.90
54680;DHT22;40578;53.178;5.846;2023-06-22T07:38:20;20.40;99.90
54680;DHT22;40578;53.178;5.846;2023-06-22T07:40:46;20.40;99.90
54680;DHT22;40578;53.178;5.846;2023-06-22T07:43:12;20.50;99.90
54680;DHT22;40578;53.178;5.846;2023-06-22T07:45:38;20.60;99.90
54680;DHT22;40578;53.178;5.846;2023-06-22T07:48:07;20.60;99.90
54680;DHT22;40578;53.178;5.846;2023-06-22T07:50:33;20.60;99.90
54680;DHT22;40578;53.178;5.846;2023-06-22T07:52:59;20.70;99.90
54680;DHT22;40578;53.178;5.846;2023-06-22T07:55:24;20.80;99.90
54680;DHT22;40578;53.178;5.846;2023-06-22T07:57:50;20.90;99.90
54680;DHT22;40578;53.178;5.846;2023-06-22T08:00:17;20.90;99.90
54680;DHT22;40578;53.178;5.846;2023-06-22T08:02:45;21.00;99.90
54680;DHT22;40578;53.178;5.846;2023-06-22T08:05:12;21.10;99.90
54680;DHT22;40578;53.178;5.846;2023-06-22T08:07:38;21.20;99.90
54680;DHT22;40578;53.178;5.846;2023-06-22T08:10:05;21.20;99.90
54680;DHT22;40578;53.178;5.846;2023-06-22T08:12:31;21.30;99.90
54680;DHT22;40578;53.178;5.846;2023-06-22T08:14:57;21.30;99.90
54680;DHT22;40578;53.178;5.846;2023-06-22T08:17:23;21.40;99.90
54680;DHT22;40578;53.178;5.846;2023-06-22T08:19:49;21.50;99.90
54680;DHT22;40578;53.178;5.846;2023-06-22T08:22:16;21.50;99.90
54680;DHT22;40578;53.178;5.846;2023-06-22T08:24:42;21.60;99.90
54680;DHT22;40578;53.178;5.846;2023-06-22T08:27:08;21.60;99.90
54680;DHT22;40578;53.178;5.846;2023-06-22T08:29:41;21.70;99.90
54680;DHT22;40578;53.178;5.846;2023-06-22T08:32:09;21.70;99.90
54680;DHT22;40578;53.178;5.846;2023-06-22T08:34:35;21.70;99.90
54680;DHT22;40578;53.178;5.846;2023-06-22T08:37:01;21.80;99.90
54680;DHT22;40578;53.178;5.846;2023-06-22T08:39:27;21.90;99.90
54680;DHT22;40578;53.178;5.846;2023-06-22T08:41:53;22.00;99.90
54680;DHT22;40578;53.178;5.846;2023-06-22T08:44:19;22.00;99.90
54680;DHT22;40578;53.178;5.846;2023-06-22T08:46:45;22.10;99.90
54680;DHT22;40578;53.178;5.846;2023-06-22T08:49:11;22.20;99.90
54680;DHT22;40578;53.178;5.846;2023-06-22T08:51:36;22.30;99.90
54680;DHT22;40578;53.178;5.846;2023-06-22T08:54:02;22.30;99.90
54680;DHT22;40578;53.178;5.846;2023-06-22T08:56:27;22.30;99.90
54680;DHT22;40578;53.178;5.846;2023-06-22T08:58:53;21.10;99.90
54680;DHT22;40578;53.178;5.846;2023-06-22T09:01:19;22.30;99.90
54680;DHT22;40578;53.178;5.846;2023-06-22T09:03:44;22.40;99.90
54680;DHT22;40578;53.178;5.846;2023-06-22T09:06:19;22.40;99.90
54680;DHT22;40578;53.178;5.846;2023-06-22T09:08:45;22.30;99.90
54680;DHT22;40578;53.178;5.846;2023-06-22T09:11:11;22.30;99.90
54680;DHT22;40578;53.178;5.846;2023-06-22T09:13:37;22.40;99.90
54680;DHT22;40578;53.178;5.846;2023-06-22T09:16:03;22.40;99.90
54680;DHT22;40578;53.178;5.846;2023-06-22T09:18:28;22.40;99.90
54680;DHT22;40578;53.178;5.846;2023-06-22T09:20:54;22.50;99.90
54680;DHT22;40578;53.178;5.846;2023-06-22T09:23:20;22.50;99.90
54680;DHT22;40578;53.178;5.846;2023-06-22T09:25:45;22.60;99.90
54680;DHT22;40578;53.178;5.846;2023-06-22T09:28:13;22.60;99.90
54680;DHT22;40578;53.178;5.846;2023-06-22T09:30:39;22.60;99.90
54680;DHT22;40578;53.178;5.846;2023-06-22T09:33:05;22.80;99.90
54680;DHT22;40578;53.178;5.846;2023-06-22T09:35:30;22.80;99.90
54680;DHT22;40578;53.178;5.846;2023-06-22T09:37:56;22.80;99.90
54680;DHT22;40578;53.178;5.846;2023-06-22T09:40:21;22.90;99.90
54680;DHT22;40578;53.178;5.846;2023-06-22T09:42:47;22.90;99.90
54680;DHT22;40578;53.178;5.846;2023-06-22T09:45:13;22.90;99.90
54680;DHT22;40578;53.178;5.846;2023-06-22T09:47:38;23.10;99.90
54680;DHT22;40578;53.178;5.846;2023-06-22T09:50:05;23.10;99.90
54680;DHT22;40578;53.178;5.846;2023-06-22T09:52:31;23.20;99.90
54680;DHT22;40578;53.178;5.846;2023-06-22T09:54:56;23.30;99.90
54680;DHT22;40578;53.178;5.846;2023-06-22T09:57:22;23.30;99.90
54680;DHT22;40578;53.178;5.846;2023-06-22T09:59:47;23.30;99.90
54680;DHT22;40578;53.178;5.846;2023-06-22T10:02:13;23.50;99.90
54680;DHT22;40578;53.178;5.846;2023-06-22T10:04:39;23.40;99.90
54680;DHT22;40578;53.178;5.846;2023-06-22T10:07:05;23.50;99.90
54680;DHT22;40578;53.178;5.846;2023-06-22T10:09:31;23.60;99.90
54680;DHT22;40578;53.178;5.846;2023-06-22T10:11:57;23.80;99.90
54680;DHT22;40578;53.178;5.846;2023-06-22T10:14:22;23.90;99.90
54680;DHT22;40578;53.178;5.846;2023-06-22T10:16:52;23.90;99.90
54680;DHT22;40578;53.178;5.846;2023-06-22T10:19:18;23.90;99.90
54680;DHT22;40578;53.178;5.846;2023-06-22T10:21:44;24.00;99.90
54680;DHT22;40578;53.178;5.846;2023-06-22T10:24:09;24.00;99.90
54680;DHT22;40578;53.178;5.846;2023-06-22T10:26:36;24.10;99.90
54680;DHT22;40578;53.178;5.846;2023-06-22T10:29:02;24.20;99.90
54680;DHT22;40578;53.178;5.846;2023-06-22T10:31:28;24.20;99.90
54680;DHT22;40578;53.178;5.846;2023-06-22T10:33:55;24.10;99.90
54680;DHT22;40578;53.178;5.846;2023-06-22T10:36:23;24.20;99.90
54680;DHT22;40578;53.178;5.846;2023-06-22T10:38:52;24.30;99.90
54680;DHT22;40578;53.178;5.846;2023-06-22T10:41:18;24.40;99.90
54680;DHT22;40578;53.178;5.846;2023-06-22T10:43:44;24.30;99.90
54680;DHT22;40578;53.178;5.846;2023-06-22T10:46:10;24.30;99.90
54680;DHT22;40578;53.178;5.846;2023-06-22T10:48:35;24.40;99.90
54680;DHT22;40578;53.178;5.846;2023-06-22T10:51:01;24.50;99.90
54680;DHT22;40578;53.178;5.846;2023-06-22T10:53:26;24.40;99.90
54680;DHT22;40578;53.178;5.846;2023-06-22T10:55:52;24.50;99.90
54680;DHT22;40578;53.178;5.846;2023-06-22T10:58:19;24.40;99.90
54680;DHT22;40578;53.178;5.846;2023-06-22T11:00:45;24.50;99.90
54680;DHT22;40578;53.178;5.846;2023-06-22T11:03:11;24.50;99.90
54680;DHT22;40578;53.178;5.846;2023-06-22T11:05:37;24.40;99.90
54680;DHT22;40578;53.178;5.846;2023-06-22T11:08:03;24.40;99.90
54680;DHT22;40578;53.178;5.846;2023-06-22T11:10:28;24.40;99.90
54680;DHT22;40578;53.178;5.846;2023-06-22T11:12:54;24.40;99.90
54680;DHT22;40578;53.178;5.846;2023-06-22T11:15:20;24.50;99.90
54680;DHT22;40578;53.178;5.846;2023-06-22T11:17:46;24.60;99.90
54680;DHT22;40578;53.178;5.846;2023-06-22T11:20:12;24.50;99.90
54680;DHT22;40578;53.178;5.846;2023-06-22T11:22:38;24.60;99.90
54680;DHT22;40578;53.178;5.846;2023-06-22T11:25:05;24.50;99.90
54680;DHT22;40578;53.178;5.846;2023-06-22T11:27:31;24.40;99.90
54680;DHT22;40578;53.178;5.846;2023-06-22T11:29:57;24.60;99.90
54680;DHT22;40578;53.178;5.846;2023-06-22T11:32:23;24.60;99.90
54680;DHT22;40578;53.178;5.846;2023-06-22T11:34:48;24.60;99.90
54680;DHT22;40578;53.178;5.846;2023-06-22T11:37:14;24.80;99.90
54680;DHT22;40578;53.178;5.846;2023-06-22T11:39:41;24.90;99.90
54680;DHT22;40578;53.178;5.846;2023-06-22T11:42:07;24.80;99.90
54680;DHT22;40578;53.178;5.846;2023-06-22T11:44:33;24.90;99.90
54680;DHT22;40578;53.178;5.846;2023-06-22T11:46:59;24.90;99.90
54680;DHT22;40578;53.178;5.846;2023-06-22T11:49:26;25.00;99.90
54680;DHT22;40578;53.178;5.846;2023-06-22T11:51:52;25.10;99.90
54680;DHT22;40578;53.178;5.846;2023-06-22T11:54:18;25.10;99.90
54680;DHT22;40578;53.178;5.846;2023-06-22T11:56:43;25.00;99.90
54680;DHT22;40578;53.178;5.846;2023-06-22T11:59:09;25.00;99.90
54680;DHT22;40578;53.178;5.846;2023-06-22T12:01:34;25.20;99.90
54680;DHT22;40578;53.178;5.846;2023-06-22T12:04:00;25.20;99.90
54680;DHT22;40578;53.178;5.846;2023-06-22T12:06:26;25.20;99.90
54680;DHT22;40578;53.178;5.846;2023-06-22T12:08:51;25.10;99.90
54680;DHT22;40578;53.178;5.846;2023-06-22T12:11:17;25.00;99.90
54680;DHT22;40578;53.178;5.846;2023-06-22T12:13:42;24.90;99.90
54680;DHT22;40578;53.178;5.846;2023-06-22T12:16:08;24.80;99.90
54680;DHT22;40578;53.178;5.846;2023-06-22T12:18:34;24.70;99.90
54680;DHT22;40578;53.178;5.846;2023-06-22T12:20:59;24.70;99.90
54680;DHT22;40578;53.178;5.846;2023-06-22T12:23:25;24.60;99.90
54680;DHT22;40578;53.178;5.846;2023-06-22T12:25:50;24.50;99.90
54680;DHT22;40578;53.178;5.846;2023-06-22T12:28:16;24.50;99.90
54680;DHT22;40578;53.178;5.846;2023-06-22T12:30:42;24.60;99.90
54680;DHT22;40578;53.178;5.846;2023-06-22T12:33:08;24.60;99.90
54680;DHT22;40578;53.178;5.846;2023-06-22T12:35:34;24.60;99.90
54680;DHT22;40578;53.178;5.846;2023-06-22T12:38:00;24.50;99.90
54680;DHT22;40578;53.178;5.846;2023-06-22T12:40:25;24.60;99.90
54680;DHT22;40578;53.178;5.846;2023-06-22T12:42:51;24.60;99.90
54680;DHT22;40578;53.178;5.846;2023-06-22T12:45:16;24.50;99.90
54680;DHT22;40578;53.178;5.846;2023-06-22T12:47:42;24.50;99.90
54680;DHT22;40578;53.178;5.846;2023-06-22T12:50:08;24.50;99.90
54680;DHT22;40578;53.178;5.846;2023-06-22T12:52:36;24.60;99.90
54680;DHT22;40578;53.178;5.846;2023-06-22T12:55:04;24.60;99.90
54680;DHT22;40578;53.178;5.846;2023-06-22T12:57:30;24.60;99.90
54680;DHT22;40578;53.178;5.846;2023-06-22T12:59:55;24.50;99.90
54680;DHT22;40578;53.178;5.846;2023-06-22T13:02:21;24.60;99.90
54680;DHT22;40578;53.178;5.846;2023-06-22T13:04:47;24.50;99.90
54680;DHT22;40578;53.178;5.846;2023-06-22T13:07:12;24.40;99.90
54680;DHT22;40578;53.178;5.846;2023-06-22T13:09:38;24.30;99.90
54680;DHT22;40578;53.178;5.846;2023-06-22T13:12:04;24.30;99.90
54680;DHT22;40578;53.178;5.846;2023-06-22T13:14:29;24.40;99.90
54680;DHT22;40578;53.178;5.846;2023-06-22T13:16:55;24.40;99.90
54680;DHT22;40578;53.178;5.846;2023-06-22T13:19:20;24.40;99.90
54680;DHT22;40578;53.178;5.846;2023-06-22T13:21:46;24.30;99.90
54680;DHT22;40578;53.178;5.846;2023-06-22T13:24:12;24.20;99.90
54680;DHT22;40578;53.178;5.846;2023-06-22T13:26:38;24.20;99.90
54680;DHT22;40578;53.178;5.846;2023-06-22T13:29:04;24.20;99.90
54680;DHT22;40578;53.178;5.846;2023-06-22T13:31:30;24.20;99.90
54680;DHT22;40578;53.178;5.846;2023-06-22T13:33:55;24.20;99.90
54680;DHT22;40578;53.178;5.846;2023-06-22T13:36:21;24.20;99.90
54680;DHT22;40578;53.178;5.846;2023-06-22T13:38:48;24.10;99.90
54680;DHT22;40578;53.178;5.846;2023-06-22T13:41:14;24.20;99.90
54680;DHT22;40578;53.178;5.846;2023-06-22T13:43:40;24.20;99.90
54680;DHT22;40578;53.178;5.846;2023-06-22T13:46:05;24.00;99.90
54680;DHT22;40578;53.178;5.846;2023-06-22T13:48:31;24.00;99.90
54680;DHT22;40578;53.178;5.846;2023-06-22T13:50:57;24.00;99.90
54680;DHT22;40578;53.178;5.846;2023-06-22T13:53:24;23.80;99.90
54680;DHT22;40578;53.178;5.846;2023-06-22T13:55:50;23.70;99.90
54680;DHT22;40578;53.178;5.846;2023-06-22T13:58:15;23.80;99.90
54680;DHT22;40578;53.178;5.846;2023-06-22T14:00:41;23.70;99.90
54680;DHT22;40578;53.178;5.846;2023-06-22T14:03:07;23.70;99.90
54680;DHT22;40578;53.178;5.846;2023-06-22T14:05:32;23.50;99.90
54680;DHT22;40578;53.178;5.846;2023-06-22T14:07:58;23.40;99.90
54680;DHT22;40578;53.178;5.846;2023-06-22T14:10:23;23.40;99.90
54680;DHT22;40578;53.178;5.846;2023-06-22T14:12:49;23.40;99.90
54680;DHT22;40578;53.178;5.846;2023-06-22T14:15:15;23.30;99.90
54680;DHT22;40578;53.178;5.846;2023-06-22T14:17:40;23.30;99.90
54680;DHT22;40578;53.178;5.846;2023-06-22T14:20:06;23.20;99.90
54680;DHT22;40578;53.178;5.846;2023-06-22T14:22:33;23.20;99.90
54680;DHT22;40578;53.178;5.846;2023-06-22T14:25:00;23.10;99.90
54680;DHT22;40578;53.178;5.846;2023-06-22T14:27:27;23.00;99.90
54680;DHT22;40578;53.178;5.846;2023-06-22T14:29:52;23.00;99.90
54680;DHT22;40578;53.178;5.846;2023-06-22T14:32:18;22.80;99.90
54680;DHT22;40578;53.178;5.846;2023-06-22T14:34:44;22.90;99.90
54680;DHT22;40578;53.178;5.846;2023-06-22T14:37:10;22.80;99.90
54680;DHT22;40578;53.178;5.846;2023-06-22T14:39:36;22.80;99.90
54680;DHT22;40578;53.178;5.846;2023-06-22T14:42:02;22.80;99.90
54680;DHT22;40578;53.178;5.846;2023-06-22T14:44:29;22.80;99.90
54680;DHT22;40578;53.178;5.846;2023-06-22T14:46:55;22.70;99.90
54680;DHT22;40578;53.178;5.846;2023-06-22T14:49:21;22.70;99.90
54680;DHT22;40578;53.178;5.846;2023-06-22T14:51:46;22.60;99.90
54680;DHT22;40578;53.178;5.846;2023-06-22T14:54:12;22.70;99.90
54680;DHT22;40578;53.178;5.846;2023-06-22T14:56:38;22.70;99.90
54680;DHT22;40578;53.178;5.846;2023-06-22T14:59:03;22.70;99.90
54680;DHT22;40578;53.178;5.846;2023-06-22T15:01:29;22.80;99.90
54680;DHT22;40578;53.178;5.846;2023-06-22T15:03:55;22.80;99.90
54680;DHT22;40578;53.178;5.846;2023-06-22T15:06:21;22.80;99.90
54680;DHT22;40578;53.178;5.846;2023-06-22T15:08:47;22.80;99.90
54680;DHT22;40578;53.178;5.846;2023-06-22T15:11:12;22.80;99.90
54680;DHT22;40578;53.178;5.846;2023-06-22T15:13:41;22.70;99.90
54680;DHT22;40578;53.178;5.846;2023-06-22T15:16:07;22.80;99.90
54680;DHT22;40578;53.178;5.846;2023-06-22T15:18:34;22.80;99.90
54680;DHT22;40578;53.178;5.846;2023-06-22T15:21:01;22.80;99.90
54680;DHT22;40578;53.178;5.846;2023-06-22T15:23:31;22.70;99.90
54680;DHT22;40578;53.178;5.846;2023-06-22T15:25:57;22.70;99.90
54680;DHT22;40578;53.178;5.846;2023-06-22T15:28:23;22.70;99.90
54680;DHT22;40578;53.178;5.846;2023-06-22T15:30:50;22.60;99.90